Terminal Aerodrome Forecast
Issued by NWS Amarillo, TX

Home | Current Version | Previous Version | Text Only | Print | Product List | Glossary On
Versions: 1 2 3 4 5 6 7 8 9 10 11 12 13 14 15
000
FTUS44 KAMA 180520
TAFDHT
TAF
KDHT 180520Z 1806/1906 25017G27KT P6SM SCT200
     FM180800 34029G39KT P6SM SCT200
     FM181600 01020G30KT P6SM SKC
     FM182000 01011KT P6SM SKC
     FM190000 VRB04KT P6SM SKC=

USA.gov is the U.S. government's official web portal to all federal, state and local government web resources and services.